Perry, MO

10:06 AM CDT on July 28, 2014 (GMT -0500)
KMOMEXIC4 Elev 778 ft | 39.17 °N, 91.87 °W | Change Station

Current weather conditions updated 3 minutes ago

Overcast
Overcast
70.4 °F
Feels Like 72 °F
N
0.0
Wind Variable Wind from NNE
Gusts 9.0 mph

Today is forecast to be Much Cooler than yesterday.

Today
High -- | Low -- °F
--% Chance of Precip.
Yesterday
High -- | Low -- °F
Precip. -- in
6:02 AM 8:22 PM
Waxing Crescent, 3% visible
Pressure 30.16 in
Visibility 10.0 miles
Clouds Scattered Clouds 1400 ft
Mostly Cloudy 2200 ft
Overcast 2800 ft
Heat Index 72 °F
Dew Point 63 °F
Humidity 77%
Rainfall 0.00 in
Snow Depth Not available.
UV 2 out of 12
Pollen 6.60 out of 12
Air Quality Not available.
Flu Activity Not available.
METAR KHAE 281455Z AUTO 01004KT 10SM SCT014 BKN022 OVC028 20/15 A3016 RMK AO2

More Conditions Fewer Conditions

Pressure 30.16 in
Visibility 10.0 miles
Clouds Scattered Clouds 1400 ft
Mostly Cloudy 2200 ft
Overcast 2800 ft
Heat Index 72 °F
Dew Point 63 °F
Humidity 77%
Rainfall 0.00 in
Snow Depth Not available.
UV 2 out of 12
Pollen 6.60 out of 12
Air Quality Not available.
Flu Activity Not available.
METAR KHAE 281455Z AUTO 01004KT 10SM SCT014 BKN022 OVC028 20/15 A3016 RMK AO2

More Conditions Fewer Conditions

10-Day Weather Forecast

Almanac

Astronomy

Jul. 28, 2014 Rise Set
Actual Time 6:02 AM CDT 8:22 PM CDT
Civil Twilight 5:32 AM CDT 8:53 PM CDT
Nautical Twilight 4:55 AM CDT 9:30 PM CDT
Astronomical Twilight 4:13 AM CDT 10:11 PM CDT
Moon 7:43 AM CDT 9:05 PM CDT
Length of Visible Light 15h 20m
Length of Day
14h 20m
Tomorrow will be 1m 51s shorter.
Waxing Crescent, 3% of the Moon is Illuminated
Today
Waxing Crescent
Aug 3
First Quarter
Aug 10
Full
Aug 17
Last Quarter
Aug 25
New

Today's Extremes

State Highs State Lows

Community

WunderPhotos

Upload Photos

1,738,370 photos uploaded!

Nearby

Snow Depth

Station Depth Elevation
No new snow has been reported.

Earthquake Activity

City Distance Mag. Time & Date
No recent earthquake activity has been reported nearby.
Minimum magnitude displayed is 2.5.

Coastal Water Temperatures

Place Temperature
No Stations Reporting

Nearby Weather Stations

Station Location Temp. Heat Index Dew Point Humidity Wind Precip. Elev Updated Type
North Eastern Ralls County WB2UFO, New London, MO 66.8 °F - 62 °F 86% North  at  2.0 mph 0.00 in / hr 700 ft 9:01 AM CDT Normal
NonFedAWOS MEXICO , Mexico, MO 70 °F - 64 °F 83% North  at  7 mph 0.00 in / hr 823 ft 8:59 AM CDT MADIS
Mexico, MO 70.4 °F 72 °F 63 °F 77% NNE  at  0.0 mph 0.00 in / hr 778 ft 10:03 AM CDT Normal
Near Lakeview Lake, Mexico, MO 70.8 °F 72 °F 63 °F 77% WNW  at  0.0 mph 0.00 in / hr 817 ft 10:06 AM CDT Rapid Fire

Show More Stations Show Fewer Stations